sensor_id;sensor_type;location;lat;lon;timestamp;P1;durP1;ratioP1;P2;durP2;ratioP2
39094;SDS011;24840;47.508;19.376;2024-03-23T00:55:11;12.47;;;7.87;;
39094;SDS011;24840;47.508;19.376;2024-03-23T00:57:38;13.03;;;7.87;;
39094;SDS011;24840;47.508;19.376;2024-03-23T01:00:04;10.67;;;7.33;;
39094;SDS011;24840;47.508;19.376;2024-03-23T01:02:31;13.33;;;8.30;;
39094;SDS011;24840;47.508;19.376;2024-03-23T01:04:57;11.13;;;7.73;;
39094;SDS011;24840;47.508;19.376;2024-03-23T01:07:23;13.47;;;8.17;;
39094;SDS011;24840;47.508;19.376;2024-03-23T01:09:49;11.83;;;7.20;;
39094;SDS011;24840;47.508;19.376;2024-03-23T01:12:17;12.27;;;7.70;;
39094;SDS011;24840;47.508;19.376;2024-03-23T01:14:43;10.83;;;8.00;;
39094;SDS011;24840;47.508;19.376;2024-03-23T01:17:09;12.43;;;8.00;;
39094;SDS011;24840;47.508;19.376;2024-03-23T01:19:35;12.10;;;7.83;;
39094;SDS011;24840;47.508;19.376;2024-03-23T01:22:01;14.33;;;8.97;;
39094;SDS011;24840;47.508;19.376;2024-03-23T01:24:27;11.53;;;8.03;;
39094;SDS011;24840;47.508;19.376;2024-03-23T01:26:53;12.70;;;9.37;;
39094;SDS011;24840;47.508;19.376;2024-03-23T01:29:19;12.70;;;8.03;;
39094;SDS011;24840;47.508;19.376;2024-03-23T01:31:45;14.57;;;10.03;;
39094;SDS011;24840;47.508;19.376;2024-03-23T01:34:11;14.23;;;9.23;;
39094;SDS011;24840;47.508;19.376;2024-03-23T01:36:37;13.77;;;9.60;;
39094;SDS011;24840;47.508;19.376;2024-03-23T01:39:04;15.00;;;10.13;;
39094;SDS011;24840;47.508;19.376;2024-03-23T01:41:30;12.40;;;8.70;;
39094;SDS011;24840;47.508;19.376;2024-03-23T01:43:56;13.70;;;9.60;;
39094;SDS011;24840;47.508;19.376;2024-03-23T01:46:22;11.53;;;8.67;;
39094;SDS011;24840;47.508;19.376;2024-03-23T01:48:48;12.47;;;8.87;;
39094;SDS011;24840;47.508;19.376;2024-03-23T01:51:14;16.27;;;10.23;;
39094;SDS011;24840;47.508;19.376;2024-03-23T01:53:40;15.43;;;9.33;;
39094;SDS011;24840;47.508;19.376;2024-03-23T01:56:07;13.23;;;9.40;;
39094;SDS011;24840;47.508;19.376;2024-03-23T01:58:33;17.00;;;10.13;;
39094;SDS011;24840;47.508;19.376;2024-03-23T02:00:59;15.00;;;9.23;;
39094;SDS011;24840;47.508;19.376;2024-03-23T02:03:26;21.47;;;10.57;;
39094;SDS011;24840;47.508;19.376;2024-03-23T02:05:52;13.77;;;8.97;;
39094;SDS011;24840;47.508;19.376;2024-03-23T02:08:19;12.43;;;9.37;;
39094;SDS011;24840;47.508;19.376;2024-03-23T02:10:46;16.80;;;11.33;;
39094;SDS011;24840;47.508;19.376;2024-03-23T02:13:13;14.20;;;10.10;;
39094;SDS011;24840;47.508;19.376;2024-03-23T02:15:39;17.23;;;9.90;;
39094;SDS011;24840;47.508;19.376;2024-03-23T02:18:07;19.90;;;9.80;;
39094;SDS011;24840;47.508;19.376;2024-03-23T02:20:33;16.63;;;10.93;;
39094;SDS011;24840;47.508;19.376;2024-03-23T02:22:59;14.20;;;9.83;;
39094;SDS011;24840;47.508;19.376;2024-03-23T02:25:25;15.53;;;9.40;;
39094;SDS011;24840;47.508;19.376;2024-03-23T02:27:51;17.07;;;10.60;;
39094;SDS011;24840;47.508;19.376;2024-03-23T02:30:19;16.10;;;10.67;;
39094;SDS011;24840;47.508;19.376;2024-03-23T02:32:45;14.77;;;10.17;;
39094;SDS011;24840;47.508;19.376;2024-03-23T02:35:11;15.07;;;10.57;;
39094;SDS011;24840;47.508;19.376;2024-03-23T02:37:37;13.57;;;10.90;;
39094;SDS011;24840;47.508;19.376;2024-03-23T02:40:03;17.20;;;10.23;;
39094;SDS011;24840;47.508;19.376;2024-03-23T02:42:30;14.40;;;9.47;;
39094;SDS011;24840;47.508;19.376;2024-03-23T02:44:56;18.53;;;11.27;;
39094;SDS011;24840;47.508;19.376;2024-03-23T02:47:22;16.60;;;11.27;;
39094;SDS011;24840;47.508;19.376;2024-03-23T02:49:48;16.60;;;10.17;;
39094;SDS011;24840;47.508;19.376;2024-03-23T02:52:14;15.53;;;9.47;;
39094;SDS011;24840;47.508;19.376;2024-03-23T02:54:41;15.43;;;9.93;;
39094;SDS011;24840;47.508;19.376;2024-03-23T02:57:10;16.97;;;9.77;;
39094;SDS011;24840;47.508;19.376;2024-03-23T02:59:36;13.87;;;10.43;;
39094;SDS011;24840;47.508;19.376;2024-03-23T03:02:02;15.83;;;10.80;;
39094;SDS011;24840;47.508;19.376;2024-03-23T03:04:31;14.23;;;11.53;;
39094;SDS011;24840;47.508;19.376;2024-03-23T03:06:58;14.63;;;10.50;;
39094;SDS011;24840;47.508;19.376;2024-03-23T03:09:24;18.70;;;12.07;;
39094;SDS011;24840;47.508;19.376;2024-03-23T03:11:50;15.13;;;11.40;;
39094;SDS011;24840;47.508;19.376;2024-03-23T03:14:16;17.97;;;12.13;;
39094;SDS011;24840;47.508;19.376;2024-03-23T03:16:42;15.40;;;10.23;;
39094;SDS011;24840;47.508;19.376;2024-03-23T03:19:08;17.63;;;10.37;;
39094;SDS011;24840;47.508;19.376;2024-03-23T03:21:35;16.60;;;11.00;;
39094;SDS011;24840;47.508;19.376;2024-03-23T03:24:02;15.10;;;10.90;;
39094;SDS011;24840;47.508;19.376;2024-03-23T03:26:28;16.73;;;11.00;;
39094;SDS011;24840;47.508;19.376;2024-03-23T03:28:54;14.50;;;11.30;;
39094;SDS011;24840;47.508;19.376;2024-03-23T03:31:20;17.47;;;11.20;;
39094;SDS011;24840;47.508;19.376;2024-03-23T03:33:46;15.47;;;11.07;;
39094;SDS011;24840;47.508;19.376;2024-03-23T03:36:12;14.83;;;11.33;;
39094;SDS011;24840;47.508;19.376;2024-03-23T03:38:38;17.07;;;11.30;;
39094;SDS011;24840;47.508;19.376;2024-03-23T03:41:04;15.27;;;10.93;;
39094;SDS011;24840;47.508;19.376;2024-03-23T03:43:31;16.00;;;10.87;;
39094;SDS011;24840;47.508;19.376;2024-03-23T03:45:58;13.60;;;9.97;;
39094;SDS011;24840;47.508;19.376;2024-03-23T03:48:24;14.33;;;11.47;;
39094;SDS011;24840;47.508;19.376;2024-03-23T03:50:51;16.20;;;10.80;;
39094;SDS011;24840;47.508;19.376;2024-03-23T03:53:17;12.67;;;10.10;;
39094;SDS011;24840;47.508;19.376;2024-03-23T03:55:43;17.43;;;11.37;;
39094;SDS011;24840;47.508;19.376;2024-03-23T03:58:09;16.40;;;10.80;;
39094;SDS011;24840;47.508;19.376;2024-03-23T04:00:35;14.60;;;11.20;;
39094;SDS011;24840;47.508;19.376;2024-03-23T04:03:02;12.83;;;9.90;;
39094;SDS011;24840;47.508;19.376;2024-03-23T04:05:28;15.60;;;10.73;;
39094;SDS011;24840;47.508;19.376;2024-03-23T04:07:54;17.50;;;9.70;;
39094;SDS011;24840;47.508;19.376;2024-03-23T04:10:20;18.00;;;11.67;;
39094;SDS011;24840;47.508;19.376;2024-03-23T04:12:46;13.53;;;10.17;;
39094;SDS011;24840;47.508;19.376;2024-03-23T04:15:13;17.30;;;12.57;;
39094;SDS011;24840;47.508;19.376;2024-03-23T04:17:39;16.30;;;11.70;;
39094;SDS011;24840;47.508;19.376;2024-03-23T04:20:07;15.03;;;11.33;;
39094;SDS011;24840;47.508;19.376;2024-03-23T04:22:36;13.70;;;10.67;;
39094;SDS011;24840;47.508;19.376;2024-03-23T04:25:02;25.30;;;13.87;;
39094;SDS011;24840;47.508;19.376;2024-03-23T04:27:32;15.67;;;11.23;;
39094;SDS011;24840;47.508;19.376;2024-03-23T04:29:58;24.90;;;11.73;;
39094;SDS011;24840;47.508;19.376;2024-03-23T04:32:26;17.37;;;11.97;;
39094;SDS011;24840;47.508;19.376;2024-03-23T04:34:52;13.37;;;10.23;;
39094;SDS011;24840;47.508;19.376;2024-03-23T04:37:18;16.43;;;11.43;;
39094;SDS011;24840;47.508;19.376;2024-03-23T04:39:44;15.03;;;11.40;;
39094;SDS011;24840;47.508;19.376;2024-03-23T04:42:11;15.07;;;10.60;;
39094;SDS011;24840;47.508;19.376;2024-03-23T04:44:37;13.53;;;10.03;;
39094;SDS011;24840;47.508;19.376;2024-03-23T04:47:03;16.70;;;11.60;;
39094;SDS011;24840;47.508;19.376;2024-03-23T04:49:30;16.83;;;10.93;;
39094;SDS011;24840;47.508;19.376;2024-03-23T04:51:56;16.53;;;11.33;;
39094;SDS011;24840;47.508;19.376;2024-03-23T04:54:23;22.67;;;11.13;;
39094;SDS011;24840;47.508;19.376;2024-03-23T04:56:49;13.77;;;9.40;;
39094;SDS011;24840;47.508;19.376;2024-03-23T04:59:15;14.97;;;10.80;;
39094;SDS011;24840;47.508;19.376;2024-03-23T05:01:41;13.27;;;11.17;;
39094;SDS011;24840;47.508;19.376;2024-03-23T05:04:08;14.13;;;10.70;;
39094;SDS011;24840;47.508;19.376;2024-03-23T05:06:35;15.13;;;10.03;;
39094;SDS011;24840;47.508;19.376;2024-03-23T05:09:01;15.53;;;10.70;;
39094;SDS011;24840;47.508;19.376;2024-03-23T05:11:36;13.03;;;10.50;;
39094;SDS011;24840;47.508;19.376;2024-03-23T05:14:02;13.03;;;9.70;;
39094;SDS011;24840;47.508;19.376;2024-03-23T05:16:28;15.00;;;10.47;;
39094;SDS011;24840;47.508;19.376;2024-03-23T05:18:55;15.50;;;11.00;;
39094;SDS011;24840;47.508;19.376;2024-03-23T05:21:21;17.43;;;11.03;;
39094;SDS011;24840;47.508;19.376;2024-03-23T05:23:47;13.33;;;10.53;;
39094;SDS011;24840;47.508;19.376;2024-03-23T05:26:13;14.77;;;10.47;;
39094;SDS011;24840;47.508;19.376;2024-03-23T05:28:39;15.87;;;11.30;;
39094;SDS011;24840;47.508;19.376;2024-03-23T05:31:05;23.93;;;13.50;;
39094;SDS011;24840;47.508;19.376;2024-03-23T05:33:31;16.93;;;12.50;;
39094;SDS011;24840;47.508;19.376;2024-03-23T05:35:58;35.67;;;24.27;;
39094;SDS011;24840;47.508;19.376;2024-03-23T05:38:24;31.83;;;21.77;;
39094;SDS011;24840;47.508;19.376;2024-03-23T05:40:57;16.73;;;12.80;;
39094;SDS011;24840;47.508;19.376;2024-03-23T05:43:23;18.37;;;13.07;;
39094;SDS011;24840;47.508;19.376;2024-03-23T05:45:53;17.90;;;13.17;;
39094;SDS011;24840;47.508;19.376;2024-03-23T05:48:19;27.33;;;13.37;;
39094;SDS011;24840;47.508;19.376;2024-03-23T05:50:45;15.03;;;10.97;;
39094;SDS011;24840;47.508;19.376;2024-03-23T05:53:11;17.80;;;13.13;;
39094;SDS011;24840;47.508;19.376;2024-03-23T05:55:38;17.23;;;11.53;;
39094;SDS011;24840;47.508;19.376;2024-03-23T05:58:04;15.47;;;11.87;;
39094;SDS011;24840;47.508;19.376;2024-03-23T06:00:30;16.10;;;11.77;;
39094;SDS011;24840;47.508;19.376;2024-03-23T06:02:56;14.67;;;10.43;;
39094;SDS011;24840;47.508;19.376;2024-03-23T06:05:22;22.10;;;12.80;;
39094;SDS011;24840;47.508;19.376;2024-03-23T06:07:49;20.13;;;12.20;;
39094;SDS011;24840;47.508;19.376;2024-03-23T06:10:15;16.03;;;12.27;;
39094;SDS011;24840;47.508;19.376;2024-03-23T06:12:41;17.40;;;11.27;;
39094;SDS011;24840;47.508;19.376;2024-03-23T06:15:07;12.77;;;10.10;;
39094;SDS011;24840;47.508;19.376;2024-03-23T06:17:38;18.80;;;12.57;;
39094;SDS011;24840;47.508;19.376;2024-03-23T06:20:05;25.03;;;16.07;;
39094;SDS011;24840;47.508;19.376;2024-03-23T06:22:31;17.30;;;13.37;;
39094;SDS011;24840;47.508;19.376;2024-03-23T06:24:58;28.50;;;16.80;;
39094;SDS011;24840;47.508;19.376;2024-03-23T06:27:24;19.97;;;13.70;;
39094;SDS011;24840;47.508;19.376;2024-03-23T06:29:50;22.70;;;15.73;;
39094;SDS011;24840;47.508;19.376;2024-03-23T06:32:17;19.77;;;15.20;;
39094;SDS011;24840;47.508;19.376;2024-03-23T06:34:43;23.47;;;15.37;;
39094;SDS011;24840;47.508;19.376;2024-03-23T06:37:09;25.63;;;18.03;;
39094;SDS011;24840;47.508;19.376;2024-03-23T06:39:36;25.03;;;17.10;;
39094;SDS011;24840;47.508;19.376;2024-03-23T06:42:02;24.50;;;18.73;;
39094;SDS011;24840;47.508;19.376;2024-03-23T06:44:28;27.37;;;18.87;;
39094;SDS011;24840;47.508;19.376;2024-03-23T06:46:55;25.38;;;18.40;;
39094;SDS011;24840;47.508;19.376;2024-03-23T06:49:22;26.20;;;18.88;;
39094;SDS011;24840;47.508;19.376;2024-03-23T06:51:48;22.25;;;17.13;;
39094;SDS011;24840;47.508;19.376;2024-03-23T06:54:14;27.80;;;19.40;;
39094;SDS011;24840;47.508;19.376;2024-03-23T06:56:40;25.55;;;17.88;;
39094;SDS011;24840;47.508;19.376;2024-03-23T06:59:06;24.17;;;19.52;;
39094;SDS011;24840;47.508;19.376;2024-03-23T07:01:32;25.88;;;18.55;;
39094;SDS011;24840;47.508;19.376;2024-03-23T07:03:59;22.65;;;17.33;;
39094;SDS011;24840;47.508;19.376;2024-03-23T07:06:25;25.42;;;18.88;;
39094;SDS011;24840;47.508;19.376;2024-03-23T07:08:52;27.38;;;17.40;;
39094;SDS011;24840;47.508;19.376;2024-03-23T07:11:18;19.60;;;15.02;;
39094;SDS011;24840;47.508;19.376;2024-03-23T07:13:45;23.20;;;15.70;;
39094;SDS011;24840;47.508;19.376;2024-03-23T07:16:11;20.08;;;16.27;;
39094;SDS011;24840;47.508;19.376;2024-03-23T07:18:38;16.92;;;14.10;;
39094;SDS011;24840;47.508;19.376;2024-03-23T07:21:04;22.92;;;15.40;;
39094;SDS011;24840;47.508;19.376;2024-03-23T07:23:31;20.13;;;14.88;;
39094;SDS011;24840;47.508;19.376;2024-03-23T07:25:58;19.98;;;14.35;;
39094;SDS011;24840;47.508;19.376;2024-03-23T07:28:24;19.58;;;13.75;;
39094;SDS011;24840;47.508;19.376;2024-03-23T07:33:29;16.48;;;12.98;;
39094;SDS011;24840;47.508;19.376;2024-03-23T07:35:55;18.98;;;14.63;;
39094;SDS011;24840;47.508;19.376;2024-03-23T07:38:21;22.90;;;14.30;;
39094;SDS011;24840;47.508;19.376;2024-03-23T07:40:47;18.38;;;14.20;;
39094;SDS011;24840;47.508;19.376;2024-03-23T07:43:19;18.73;;;13.82;;
39094;SDS011;24840;47.508;19.376;2024-03-23T07:45:50;18.90;;;13.90;;
39094;SDS011;24840;47.508;19.376;2024-03-23T07:48:17;25.58;;;16.50;;
39094;SDS011;24840;47.508;19.376;2024-03-23T07:50:43;19.90;;;15.65;;
39094;SDS011;24840;47.508;19.376;2024-03-23T07:53:09;28.73;;;14.32;;
39094;SDS011;24840;47.508;19.376;2024-03-23T07:55:35;18.25;;;14.18;;
39094;SDS011;24840;47.508;19.376;2024-03-23T07:58:01;22.13;;;14.35;;
39094;SDS011;24840;47.508;19.376;2024-03-23T08:00:27;39.70;;;19.92;;
39094;SDS011;24840;47.508;19.376;2024-03-23T08:02:53;19.02;;;13.40;;
39094;SDS011;24840;47.508;19.376;2024-03-23T08:05:19;15.48;;;12.10;;
39094;SDS011;24840;47.508;19.376;2024-03-23T08:07:46;23.55;;;14.50;;
39094;SDS011;24840;47.508;19.376;2024-03-23T08:10:15;15.80;;;12.57;;
39094;SDS011;24840;47.508;19.376;2024-03-23T08:12:45;14.13;;;10.85;;
39094;SDS011;24840;47.508;19.376;2024-03-23T08:15:11;14.13;;;11.45;;
39094;SDS011;24840;47.508;19.376;2024-03-23T08:17:37;13.77;;;10.90;;
39094;SDS011;24840;47.508;19.376;2024-03-23T08:20:04;15.13;;;10.27;;
39094;SDS011;24840;47.508;19.376;2024-03-23T08:22:30;12.50;;;10.27;;
39094;SDS011;24840;47.508;19.376;2024-03-23T08:24:56;19.17;;;10.68;;
39094;SDS011;24840;47.508;19.376;2024-03-23T08:27:22;15.68;;;10.45;;
39094;SDS011;24840;47.508;19.376;2024-03-23T08:29:51;15.50;;;12.07;;
39094;SDS011;24840;47.508;19.376;2024-03-23T08:32:17;13.20;;;10.18;;
39094;SDS011;24840;47.508;19.376;2024-03-23T08:34:43;13.48;;;10.15;;
39094;SDS011;24840;47.508;19.376;2024-03-23T08:37:09;20.05;;;11.00;;
39094;SDS011;24840;47.508;19.376;2024-03-23T08:39:35;15.07;;;10.98;;
39094;SDS011;24840;47.508;19.376;2024-03-23T08:42:01;13.80;;;11.00;;
39094;SDS011;24840;47.508;19.376;2024-03-23T08:44:27;13.48;;;9.98;;
39094;SDS011;24840;47.508;19.376;2024-03-23T08:46:55;13.10;;;8.35;;
39094;SDS011;24840;47.508;19.376;2024-03-23T08:49:21;10.85;;;8.10;;
39094;SDS011;24840;47.508;19.376;2024-03-23T08:51:47;9.50;;;7.57;;
39094;SDS011;24840;47.508;19.376;2024-03-23T08:54:14;18.00;;;11.57;;
39094;SDS011;24840;47.508;19.376;2024-03-23T08:56:40;12.40;;;7.70;;
39094;SDS011;24840;47.508;19.376;2024-03-23T08:59:06;19.00;;;8.88;;
39094;SDS011;24840;47.508;19.376;2024-03-23T09:01:32;11.10;;;7.93;;
39094;SDS011;24840;47.508;19.376;2024-03-23T09:03:58;10.32;;;8.75;;
39094;SDS011;24840;47.508;19.376;2024-03-23T09:06:24;20.48;;;9.73;;
39094;SDS011;24840;47.508;19.376;2024-03-23T09:08:50;14.25;;;8.57;;
39094;SDS011;24840;47.508;19.376;2024-03-23T09:11:16;15.15;;;8.45;;
39094;SDS011;24840;47.508;19.376;2024-03-23T09:13:42;11.95;;;8.40;;
39094;SDS011;24840;47.508;19.376;2024-03-23T09:16:08;13.07;;;8.80;;
39094;SDS011;24840;47.508;19.376;2024-03-23T09:18:35;9.70;;;7.93;;
39094;SDS011;24840;47.508;19.376;2024-03-23T09:21:11;17.83;;;11.50;;
39094;SDS011;24840;47.508;19.376;2024-03-23T09:23:44;29.40;;;14.93;;
39094;SDS011;24840;47.508;19.376;2024-03-23T09:26:10;13.80;;;8.88;;
39094;SDS011;24840;47.508;19.376;2024-03-23T09:28:36;33.42;;;20.45;;
39094;SDS011;24840;47.508;19.376;2024-03-23T09:31:05;17.55;;;10.27;;
39094;SDS011;24840;47.508;19.376;2024-03-23T09:33:32;18.17;;;10.25;;
39094;SDS011;24840;47.508;19.376;2024-03-23T09:35:58;25.13;;;17.15;;
39094;SDS011;24840;47.508;19.376;2024-03-23T09:38:28;16.05;;;9.77;;
39094;SDS011;24840;47.508;19.376;2024-03-23T09:40:54;11.52;;;8.40;;
39094;SDS011;24840;47.508;19.376;2024-03-23T09:43:20;18.80;;;13.10;;
39094;SDS011;24840;47.508;19.376;2024-03-23T09:45:46;14.05;;;9.07;;
39094;SDS011;24840;47.508;19.376;2024-03-23T09:48:12;10.52;;;7.70;;
39094;SDS011;24840;47.508;19.376;2024-03-23T09:50:42;11.88;;;7.68;;
39094;SDS011;24840;47.508;19.376;2024-03-23T09:53:09;10.75;;;7.53;;
39094;SDS011;24840;47.508;19.376;2024-03-23T09:55:36;12.05;;;5.13;;
39094;SDS011;24840;47.508;19.376;2024-03-23T09:58:02;14.70;;;5.75;;
39094;SDS011;24840;47.508;19.376;2024-03-23T10:00:30;11.60;;;4.40;;
39094;SDS011;24840;47.508;19.376;2024-03-23T10:02:56;8.15;;;5.22;;
39094;SDS011;24840;47.508;19.376;2024-03-23T10:05:29;9.50;;;5.43;;
39094;SDS011;24840;47.508;19.376;2024-03-23T10:10:43;27.58;;;17.67;;
39094;SDS011;24840;47.508;19.376;2024-03-23T10:13:09;8.07;;;5.32;;
39094;SDS011;24840;47.508;19.376;2024-03-23T10:15:35;7.75;;;5.28;;
39094;SDS011;24840;47.508;19.376;2024-03-23T10:18:17;8.52;;;4.32;;
39094;SDS011;24840;47.508;19.376;2024-03-23T10:20:45;8.52;;;3.72;;
39094;SDS011;24840;47.508;19.376;2024-03-23T10:23:18;6.18;;;3.28;;
39094;SDS011;24840;47.508;19.376;2024-03-23T10:25:44;5.78;;;2.58;;
39094;SDS011;24840;47.508;19.376;2024-03-23T10:28:11;12.02;;;3.38;;
39094;SDS011;24840;47.508;19.376;2024-03-23T10:30:37;11.32;;;3.92;;
39094;SDS011;24840;47.508;19.376;2024-03-23T10:33:09;9.07;;;3.63;;
39094;SDS011;24840;47.508;19.376;2024-03-23T10:35:36;4.95;;;3.70;;
39094;SDS011;24840;47.508;19.376;2024-03-23T10:38:04;10.60;;;3.80;;
39094;SDS011;24840;47.508;19.376;2024-03-23T10:40:30;8.20;;;3.63;;
39094;SDS011;24840;47.508;19.376;2024-03-23T10:42:57;10.93;;;5.15;;
39094;SDS011;24840;47.508;19.376;2024-03-23T10:45:25;8.15;;;4.38;;
39094;SDS011;24840;47.508;19.376;2024-03-23T10:47:51;8.45;;;4.05;;
39094;SDS011;24840;47.508;19.376;2024-03-23T10:50:17;5.82;;;4.40;;
39094;SDS011;24840;47.508;19.376;2024-03-23T10:52:47;8.85;;;3.63;;
39094;SDS011;24840;47.508;19.376;2024-03-23T10:55:14;7.43;;;3.92;;
39094;SDS011;24840;47.508;19.376;2024-03-23T10:57:41;4.68;;;3.33;;
39094;SDS011;24840;47.508;19.376;2024-03-23T11:00:08;14.95;;;4.03;;
39094;SDS011;24840;47.508;19.376;2024-03-23T11:02:35;6.63;;;3.58;;
39094;SDS011;24840;47.508;19.376;2024-03-23T11:05:01;10.75;;;4.47;;
39094;SDS011;24840;47.508;19.376;2024-03-23T11:07:28;6.55;;;3.55;;
39094;SDS011;24840;47.508;19.376;2024-03-23T11:09:54;6.75;;;3.78;;
39094;SDS011;24840;47.508;19.376;2024-03-23T11:14:51;6.47;;;3.97;;
39094;SDS011;24840;47.508;19.376;2024-03-23T11:17:18;7.45;;;3.42;;
39094;SDS011;24840;47.508;19.376;2024-03-23T11:19:44;5.55;;;3.47;;
39094;SDS011;24840;47.508;19.376;2024-03-23T11:22:37;6.75;;;3.28;;
39094;SDS011;24840;47.508;19.376;2024-03-23T11:27:39;5.97;;;3.58;;
39094;SDS011;24840;47.508;19.376;2024-03-23T11:30:15;8.45;;;3.88;;
39094;SDS011;24840;47.508;19.376;2024-03-23T11:32:47;4.28;;;3.50;;
39094;SDS011;24840;47.508;19.376;2024-03-23T11:40:47;3.17;;;2.88;;
39094;SDS011;24840;47.508;19.376;2024-03-23T11:43:14;4.18;;;2.90;;
39094;SDS011;24840;47.508;19.376;2024-03-23T11:45:43;8.13;;;3.90;;
39094;SDS011;24840;47.508;19.376;2024-03-23T11:48:16;7.03;;;2.80;;
39094;SDS011;24840;47.508;19.376;2024-03-23T11:50:46;3.80;;;2.70;;
39094;SDS011;24840;47.508;19.376;2024-03-23T11:53:19;8.25;;;3.38;;
39094;SDS011;24840;47.508;19.376;2024-03-23T11:55:46;8.68;;;3.55;;
39094;SDS011;24840;47.508;19.376;2024-03-23T11:58:12;4.78;;;3.25;;
39094;SDS011;24840;47.508;19.376;2024-03-23T12:00:38;5.18;;;2.65;;
39094;SDS011;24840;47.508;19.376;2024-03-23T12:03:04;11.00;;;3.58;;
39094;SDS011;24840;47.508;19.376;2024-03-23T12:05:31;4.28;;;2.92;;
39094;SDS011;24840;47.508;19.376;2024-03-23T12:08:16;4.40;;;2.30;;
39094;SDS011;24840;47.508;19.376;2024-03-23T12:10:47;18.52;;;3.72;;
39094;SDS011;24840;47.508;19.376;2024-03-23T12:13:17;5.82;;;2.92;;
39094;SDS011;24840;47.508;19.376;2024-03-23T12:15:44;9.23;;;2.88;;
39094;SDS011;24840;47.508;19.376;2024-03-23T12:18:10;3.70;;;2.42;;
39094;SDS011;24840;47.508;19.376;2024-03-23T12:20:37;5.18;;;2.70;;
39094;SDS011;24840;47.508;19.376;2024-03-23T12:23:12;3.83;;;2.17;;
39094;SDS011;24840;47.508;19.376;2024-03-23T12:25:39;3.70;;;1.60;;
39094;SDS011;24840;47.508;19.376;2024-03-23T12:28:05;6.30;;;2.25;;
39094;SDS011;24840;47.508;19.376;2024-03-23T12:30:35;3.97;;;2.03;;
39094;SDS011;24840;47.508;19.376;2024-03-23T12:33:01;4.63;;;2.00;;
39094;SDS011;24840;47.508;19.376;2024-03-23T12:35:28;4.50;;;1.98;;
39094;SDS011;24840;47.508;19.376;2024-03-23T12:37:54;3.03;;;1.80;;
39094;SDS011;24840;47.508;19.376;2024-03-23T12:40:20;7.90;;;2.75;;
39094;SDS011;24840;47.508;19.376;2024-03-23T12:42:46;5.68;;;2.10;;
39094;SDS011;24840;47.508;19.376;2024-03-23T12:45:12;11.95;;;3.22;;
39094;SDS011;24840;47.508;19.376;2024-03-23T12:47:38;6.07;;;2.70;;
39094;SDS011;24840;47.508;19.376;2024-03-23T12:50:04;4.38;;;3.08;;
39094;SDS011;24840;47.508;19.376;2024-03-23T12:52:31;5.20;;;2.85;;
39094;SDS011;24840;47.508;19.376;2024-03-23T12:54:57;8.35;;;2.95;;
39094;SDS011;24840;47.508;19.376;2024-03-23T12:57:24;6.28;;;3.55;;
39094;SDS011;24840;47.508;19.376;2024-03-23T12:59:51;6.82;;;2.45;;
39094;SDS011;24840;47.508;19.376;2024-03-23T13:02:20;7.13;;;2.92;;
39094;SDS011;24840;47.508;19.376;2024-03-23T13:04:49;5.82;;;2.17;;
39094;SDS011;24840;47.508;19.376;2024-03-23T13:07:15;4.10;;;2.72;;
39094;SDS011;24840;47.508;19.376;2024-03-23T13:09:41;6.25;;;3.10;;
39094;SDS011;24840;47.508;19.376;2024-03-23T13:12:07;10.15;;;2.83;;
39094;SDS011;24840;47.508;19.376;2024-03-23T13:14:33;4.20;;;2.28;;
39094;SDS011;24840;47.508;19.376;2024-03-23T13:16:59;3.38;;;2.60;;
39094;SDS011;24840;47.508;19.376;2024-03-23T13:19:27;4.15;;;2.72;;
39094;SDS011;24840;47.508;19.376;2024-03-23T13:21:55;9.50;;;3.55;;
39094;SDS011;24840;47.508;19.376;2024-03-23T13:24:22;6.25;;;2.92;;
39094;SDS011;24840;47.508;19.376;2024-03-23T13:26:49;10.82;;;4.13;;
39094;SDS011;24840;47.508;19.376;2024-03-23T13:29:15;14.18;;;4.30;;
39094;SDS011;24840;47.508;19.376;2024-03-23T13:31:41;5.55;;;4.18;;
39094;SDS011;24840;47.508;19.376;2024-03-23T13:34:07;6.00;;;4.10;;
39094;SDS011;24840;47.508;19.376;2024-03-23T13:36:33;5.13;;;3.33;;
39094;SDS011;24840;47.508;19.376;2024-03-23T13:39:00;5.20;;;2.88;;
39094;SDS011;24840;47.508;19.376;2024-03-23T13:41:30;11.25;;;2.85;;
39094;SDS011;24840;47.508;19.376;2024-03-23T13:43:56;6.95;;;3.80;;
39094;SDS011;24840;47.508;19.376;2024-03-23T13:46:22;9.00;;;3.50;;
39094;SDS011;24840;47.508;19.376;2024-03-23T13:48:48;6.85;;;3.90;;
39094;SDS011;24840;47.508;19.376;2024-03-23T13:51:14;5.20;;;3.22;;
39094;SDS011;24840;47.508;19.376;2024-03-23T13:53:40;4.53;;;3.60;;
39094;SDS011;24840;47.508;19.376;2024-03-23T13:56:06;5.25;;;3.35;;
39094;SDS011;24840;47.508;19.376;2024-03-23T13:58:32;6.50;;;3.63;;
39094;SDS011;24840;47.508;19.376;2024-03-23T14:00:58;20.85;;;5.43;;
39094;SDS011;24840;47.508;19.376;2024-03-23T14:03:24;11.15;;;4.82;;
39094;SDS011;24840;47.508;19.376;2024-03-23T14:05:50;15.82;;;8.77;;
39094;SDS011;24840;47.508;19.376;2024-03-23T14:08:17;5.72;;;3.25;;
39094;SDS011;24840;47.508;19.376;2024-03-23T14:10:44;4.55;;;2.80;;
39094;SDS011;24840;47.508;19.376;2024-03-23T14:13:10;12.95;;;6.13;;
39094;SDS011;24840;47.508;19.376;2024-03-23T14:15:36;4.28;;;3.03;;
39094;SDS011;24840;47.508;19.376;2024-03-23T14:18:02;7.45;;;4.13;;
39094;SDS011;24840;47.508;19.376;2024-03-23T14:20:28;9.35;;;6.80;;
39094;SDS011;24840;47.508;19.376;2024-03-23T14:22:54;4.90;;;3.20;;
39094;SDS011;24840;47.508;19.376;2024-03-23T14:25:21;5.32;;;3.75;;
39094;SDS011;24840;47.508;19.376;2024-03-23T14:27:52;5.25;;;3.22;;
39094;SDS011;24840;47.508;19.376;2024-03-23T14:30:18;20.23;;;13.82;;
39094;SDS011;24840;47.508;19.376;2024-03-23T14:32:44;8.93;;;5.13;;
39094;SDS011;24840;47.508;19.376;2024-03-23T14:35:10;18.80;;;6.80;;
39094;SDS011;24840;47.508;19.376;2024-03-23T14:37:37;15.15;;;7.60;;
39094;SDS011;24840;47.508;19.376;2024-03-23T14:40:03;11.40;;;3.22;;
39094;SDS011;24840;47.508;19.376;2024-03-23T14:42:31;4.47;;;3.58;;
39094;SDS011;24840;47.508;19.376;2024-03-23T14:44:57;8.00;;;2.75;;
39094;SDS011;24840;47.508;19.376;2024-03-23T14:47:23;12.25;;;5.03;;
39094;SDS011;24840;47.508;19.376;2024-03-23T14:49:49;5.95;;;4.43;;
39094;SDS011;24840;47.508;19.376;2024-03-23T14:52:16;13.15;;;3.95;;
39094;SDS011;24840;47.508;19.376;2024-03-23T14:54:43;9.27;;;3.47;;
39094;SDS011;24840;47.508;19.376;2024-03-23T14:57:09;4.82;;;3.03;;
39094;SDS011;24840;47.508;19.376;2024-03-23T14:59:36;5.75;;;3.13;;
39094;SDS011;24840;47.508;19.376;2024-03-23T15:02:08;5.30;;;3.25;;
39094;SDS011;24840;47.508;19.376;2024-03-23T15:04:34;3.78;;;2.70;;
39094;SDS011;24840;47.508;19.376;2024-03-23T15:07:01;6.00;;;3.00;;
39094;SDS011;24840;47.508;19.376;2024-03-23T15:09:27;6.93;;;3.22;;
39094;SDS011;24840;47.508;19.376;2024-03-23T15:11:53;7.47;;;2.92;;
39094;SDS011;24840;47.508;19.376;2024-03-23T15:14:26;9.48;;;5.80;;
39094;SDS011;24840;47.508;19.376;2024-03-23T15:16:52;8.20;;;3.13;;
39094;SDS011;24840;47.508;19.376;2024-03-23T15:19:19;6.28;;;2.95;;
39094;SDS011;24840;47.508;19.376;2024-03-23T15:21:45;10.80;;;4.07;;
39094;SDS011;24840;47.508;19.376;2024-03-23T15:24:11;5.18;;;3.83;;
39094;SDS011;24840;47.508;19.376;2024-03-23T15:26:37;4.47;;;2.78;;